Accueil
METAR-TAF:

METAR-TAF

Aéroports :

Omak Airport

Omak, Washington, États-Unis

latitude: 48-27-51N, longitude: 119-31-05W, altitude: 397 m

Observation

Le bulletin a été fait il y a 19 minutes, à 04:53 UTC
Vent 3 kt de sud
Température 23°C
Humidité 27%
Pression 1015 hPa
Visibilité: 16.1 km
Ciel clair

METAR: KOMK 150453Z AUTO 18003KT 10SM CLR 23/03 A2998 RMK AO2 SLP144 T02330028

Heure: 22:12 (05:12 UTC)


TAF: absent

Observations et prévisions météorologiques de plus de 4000 aéroports (messages METAR et TAF).

Les stations disponibles sont représentées par des disques jaunes et rouges sur la carte.

Passer la souris dessus pour voir le nom de la station.

Cliquer dessus pour voir les observations et prévisions météorologiques.

Pour changer de carte: cliquez sur les boutons verts avec une croix noire pour zoomer, sur le bouton vert avec un tiret pour effectuer un zoom arrière, ou sur les flèches vertes pour les cartes adjacentes.


METAR-TAF: